createdAt,value
2022-09-15T00:01:15.792Z,11.22
2022-09-15T00:03:43.115Z,11.17
2022-09-15T00:06:10.961Z,11.09
2022-09-15T00:08:38.314Z,10.97
2022-09-15T00:11:07.660Z,10.85
2022-09-15T00:13:35.953Z,10.73
2022-09-15T00:16:03.580Z,10.62
2022-09-15T00:18:30.669Z,10.56
2022-09-15T00:20:57.974Z,10.47
2022-09-15T00:23:24.789Z,10.38
2022-09-15T00:25:53.629Z,10.33
2022-09-15T00:28:21.209Z,10.29
2022-09-15T00:30:49.740Z,10.24
2022-09-15T00:33:17.525Z,10.20
2022-09-15T00:35:45.606Z,10.17
2022-09-15T00:38:13.075Z,10.12
2022-09-15T00:40:47.496Z,10.09
2022-09-15T00:43:15.033Z,10.05
2022-09-15T00:45:41.880Z,10.01
2022-09-15T00:48:12.486Z,9.97
2022-09-15T00:50:41.604Z,9.96
2022-09-15T00:53:09.202Z,9.93
2022-09-15T00:55:47.579Z,9.90
2022-09-15T00:58:34.963Z,9.87
2022-09-15T01:01:10.532Z,9.83
2022-09-15T01:03:37.533Z,9.80
2022-09-15T01:06:07.366Z,9.79
2022-09-15T01:08:44.491Z,9.79
2022-09-15T01:11:11.683Z,9.80
2022-09-15T01:13:38.477Z,9.80
2022-09-15T01:19:09.618Z,9.79
2022-09-15T01:21:51.682Z,9.79
2022-09-15T01:24:39.401Z,9.78
2022-09-15T01:27:37.648Z,9.76
2022-09-15T01:30:08.601Z,9.75
2022-09-15T01:32:59.938Z,9.76
2022-09-15T01:35:41.918Z,9.77
2022-09-15T01:38:12.074Z,9.80
2022-09-15T01:40:45.280Z,9.80
2022-09-15T01:43:16.500Z,9.81
2022-09-15T01:45:45.497Z,9.81
2022-09-15T01:48:12.411Z,9.82
2022-09-15T01:50:44.743Z,9.83
2022-09-15T01:53:14.499Z,9.84
2022-09-15T01:56:02.478Z,9.84
2022-09-15T01:58:29.379Z,9.84
2022-09-15T02:00:59.504Z,9.84
2022-09-15T02:03:55.898Z,9.84
2022-09-15T02:06:44.949Z,9.83
2022-09-15T02:09:20.869Z,9.83
2022-09-15T02:11:54.426Z,9.84
2022-09-15T02:14:36.366Z,9.84
2022-09-15T02:17:05.611Z,9.82
2022-09-15T02:19:41.942Z,9.82
2022-09-15T02:22:12.293Z,9.84
2022-09-15T02:24:42.420Z,9.82
2022-09-15T02:27:12.369Z,9.80
2022-09-15T02:29:39.952Z,9.79
2022-09-15T02:32:07.735Z,9.77
2022-09-15T02:34:37.669Z,9.79
2022-09-15T02:37:05.313Z,9.78
2022-09-15T02:39:34.535Z,9.79
2022-09-15T02:42:02.672Z,9.81
2022-09-15T02:44:31.083Z,9.82
2022-09-15T02:46:58.736Z,9.81
2022-09-15T02:49:25.549Z,9.81
2022-09-15T02:51:52.999Z,9.82
2022-09-15T02:54:19.888Z,9.82
2022-09-15T02:56:47.699Z,9.82
2022-09-15T02:59:15.072Z,9.81
2022-09-15T03:01:42.002Z,9.81
2022-09-15T03:04:09.038Z,9.81
2022-09-15T03:06:36.228Z,9.79
2022-09-15T03:09:06.634Z,9.76
2022-09-15T03:11:33.793Z,9.74
2022-09-15T03:14:02.368Z,9.73
2022-09-15T03:16:29.829Z,9.74
2022-09-15T03:18:58.810Z,9.75
2022-09-15T03:21:26.474Z,9.76
2022-09-15T03:23:53.846Z,9.76
2022-09-15T03:26:20.690Z,9.76
2022-09-15T03:28:47.546Z,9.73
2022-09-15T03:31:14.495Z,9.71
2022-09-15T03:33:47.400Z,9.71
2022-09-15T03:36:14.376Z,9.73
2022-09-15T03:38:41.444Z,9.75
2022-09-15T03:41:10.774Z,9.76
2022-09-15T03:43:37.984Z,9.75
2022-09-15T03:46:05.606Z,9.77
2022-09-15T03:48:34.711Z,9.77
2022-09-15T03:51:09.739Z,9.76
2022-09-15T03:53:40.122Z,9.74
2022-09-15T03:56:11.920Z,9.74
2022-09-15T03:58:41.818Z,9.74
2022-09-15T04:01:08.829Z,9.75
2022-09-15T04:03:44.106Z,9.76
2022-09-15T04:06:13.664Z,9.77
2022-09-15T04:08:42.290Z,9.77
2022-09-15T04:11:12.528Z,9.79
2022-09-15T04:13:40.258Z,9.81
2022-09-15T04:16:09.045Z,9.85
2022-09-15T04:18:36.780Z,9.89
2022-09-15T04:21:06.442Z,9.94
2022-09-15T04:23:33.960Z,9.97
2022-09-15T04:26:02.068Z,10.01
2022-09-15T04:28:29.877Z,10.06
2022-09-15T04:31:03.749Z,10.11
2022-09-15T04:33:31.506Z,10.11
2022-09-15T04:36:02.966Z,10.09
2022-09-15T04:38:30.087Z,10.09
2022-09-15T04:40:57.575Z,10.09
2022-09-15T04:43:24.948Z,10.08
2022-09-15T04:45:51.968Z,10.07
2022-09-15T04:48:19.230Z,10.03
2022-09-15T04:50:46.064Z,10.01
2022-09-15T04:53:13.217Z,10.03
2022-09-15T04:55:40.580Z,10.03
2022-09-15T04:58:07.548Z,10.03
2022-09-15T05:00:39.669Z,10.03
2022-09-15T05:03:06.552Z,10.03
2022-09-15T05:05:33.994Z,10.03
2022-09-15T05:08:01.121Z,10.05
2022-09-15T05:10:28.071Z,10.07
2022-09-15T05:12:55.021Z,10.09
2022-09-15T05:15:21.982Z,10.11
2022-09-15T05:17:50.180Z,10.13
2022-09-15T05:20:17.788Z,10.16
2022-09-15T05:22:45.224Z,10.18
2022-09-15T05:25:12.139Z,10.21
2022-09-15T05:27:39.680Z,10.21
2022-09-15T05:30:34.886Z,10.23
2022-09-15T05:32:54.396Z,10.26
2022-09-15T05:35:21.366Z,10.26
2022-09-15T05:37:48.171Z,10.28
2022-09-15T05:40:15.744Z,10.30
2022-09-15T05:42:42.743Z,10.34
2022-09-15T05:45:10.157Z,10.40
2022-09-15T05:47:36.982Z,10.45
2022-09-15T05:50:03.951Z,10.50
2022-09-15T05:52:30.751Z,10.57
2022-09-15T05:54:59.268Z,10.64
2022-09-15T05:57:26.289Z,10.71
2022-09-15T05:59:53.259Z,10.72
2022-09-15T06:02:20.184Z,10.77
2022-09-15T06:04:47.404Z,10.82
2022-09-15T06:07:14.340Z,10.85
2022-09-15T06:09:42.374Z,10.83
2022-09-15T06:12:09.223Z,10.81
2022-09-15T06:14:36.148Z,10.78
2022-09-15T06:17:03.065Z,10.75
2022-09-15T06:19:30.042Z,10.71
2022-09-15T06:21:56.906Z,10.71
2022-09-15T06:24:24.476Z,10.71
2022-09-15T06:26:51.419Z,10.70
2022-09-15T06:29:18.494Z,10.68
2022-09-15T06:31:45.459Z,10.65
2022-09-15T06:34:12.399Z,10.68
2022-09-15T06:36:39.336Z,10.66
2022-09-15T06:39:06.318Z,10.66
2022-09-15T06:41:58.409Z,10.68
2022-09-15T06:44:20.343Z,10.74
2022-09-15T06:46:47.437Z,10.77
2022-09-15T06:49:14.725Z,10.80
2022-09-15T06:51:42.183Z,10.81
2022-09-15T06:54:09.197Z,10.79
2022-09-15T06:56:38.349Z,10.80
2022-09-15T06:59:05.601Z,10.79
2022-09-15T07:01:32.526Z,10.82
2022-09-15T07:04:01.126Z,10.86
2022-09-15T07:06:29.167Z,10.89
2022-09-15T07:08:56.849Z,10.93
2022-09-15T07:11:24.294Z,10.98
2022-09-15T07:13:51.468Z,11.01
2022-09-15T07:16:19.312Z,11.04
2022-09-15T07:18:47.437Z,11.09
2022-09-15T07:21:15.731Z,11.13
2022-09-15T07:23:43.361Z,11.16
2022-09-15T07:26:13.350Z,11.20
2022-09-15T07:28:42.177Z,11.24
2022-09-15T07:31:10.560Z,11.27
2022-09-15T07:33:37.586Z,11.36
2022-09-15T07:36:05.493Z,11.43
2022-09-15T07:38:32.521Z,11.46
2022-09-15T07:41:06.529Z,11.45
2022-09-15T07:43:34.142Z,11.43
2022-09-15T07:46:01.693Z,11.40
2022-09-15T07:48:29.105Z,11.39
2022-09-15T07:50:56.293Z,11.33
2022-09-15T07:53:27.897Z,11.28
2022-09-15T07:55:55.535Z,11.25
2022-09-15T07:58:22.551Z,11.27
2022-09-15T08:00:49.905Z,11.34
2022-09-15T08:03:16.922Z,11.41
2022-09-15T08:05:45.881Z,11.50
2022-09-15T08:08:13.267Z,11.55
2022-09-15T08:10:41.390Z,11.64
2022-09-15T08:13:08.630Z,11.76
2022-09-15T08:15:38.912Z,11.84
2022-09-15T08:18:06.085Z,11.87
2022-09-15T08:20:33.732Z,11.88
2022-09-15T08:23:01.076Z,11.87
2022-09-15T08:25:28.023Z,11.81
2022-09-15T08:27:56.499Z,11.78
2022-09-15T08:30:23.860Z,11.77
2022-09-15T08:32:50.997Z,11.71
2022-09-15T08:35:18.031Z,11.60
2022-09-15T08:37:45.564Z,11.54
2022-09-15T08:40:24.003Z,11.50
2022-09-15T08:42:53.419Z,11.44
2022-09-15T08:45:25.831Z,11.46
2022-09-15T08:47:56.264Z,11.49
2022-09-15T08:50:27.556Z,11.51
2022-09-15T08:52:59.417Z,11.55
2022-09-15T08:55:26.202Z,11.49
2022-09-15T08:57:53.431Z,11.49
2022-09-15T09:00:20.398Z,11.49
2022-09-15T09:02:56.622Z,11.48
2022-09-15T09:05:30.275Z,11.49
2022-09-15T09:07:57.332Z,11.50
2022-09-15T09:10:30.348Z,11.55
2022-09-15T09:13:17.501Z,11.63
2022-09-15T09:15:50.658Z,11.66
2022-09-15T09:18:17.611Z,11.65
2022-09-15T09:21:02.938Z,11.67
2022-09-15T09:23:32.069Z,11.74
2022-09-15T09:26:02.095Z,11.83
2022-09-15T09:28:29.201Z,11.89
2022-09-15T09:31:02.668Z,11.92
2022-09-15T09:33:47.778Z,11.96
2022-09-15T09:36:15.109Z,12.03
2022-09-15T09:38:44.215Z,12.11
2022-09-15T09:41:26.188Z,12.14
2022-09-15T09:43:56.333Z,12.19
2022-09-15T09:46:23.231Z,12.23
2022-09-15T09:48:56.565Z,12.22
2022-09-15T09:51:37.477Z,12.27
2022-09-15T09:54:11.881Z,12.38
2022-09-15T09:56:39.158Z,12.47
2022-09-15T09:59:06.006Z,12.60
2022-09-15T10:01:33.200Z,12.67
2022-09-15T10:04:13.714Z,12.74
2022-09-15T10:06:41.339Z,12.84
2022-09-15T10:09:09.673Z,12.94
2022-09-15T10:11:45.064Z,13.08
2022-09-15T10:14:35.401Z,13.12
2022-09-15T10:17:04.763Z,13.13
2022-09-15T10:19:34.371Z,13.14
2022-09-15T10:22:02.414Z,13.17
2022-09-15T10:24:29.439Z,13.18
2022-09-15T10:27:08.548Z,13.17
2022-09-15T10:29:39.816Z,13.12
2022-09-15T10:32:24.329Z,13.10
2022-09-15T10:35:01.564Z,13.22
2022-09-15T10:37:37.008Z,13.31
2022-09-15T10:40:24.106Z,13.38
2022-09-15T10:42:52.651Z,13.39
2022-09-15T10:45:19.410Z,13.29
2022-09-15T10:47:49.072Z,13.16
2022-09-15T10:50:25.767Z,13.01
2022-09-15T10:53:05.001Z,12.88
2022-09-15T10:55:51.744Z,12.77
2022-09-15T10:58:31.380Z,12.66
2022-09-15T11:00:58.352Z,12.67
2022-09-15T11:03:25.417Z,12.67
2022-09-15T11:06:01.619Z,12.70
2022-09-15T11:08:32.147Z,12.73
2022-09-15T11:10:58.985Z,12.73
2022-09-15T11:13:31.079Z,12.78
2022-09-15T11:15:58.046Z,12.79
2022-09-15T11:18:27.963Z,12.85
2022-09-15T11:21:12.084Z,12.88
2022-09-15T11:23:44.296Z,12.92
2022-09-15T11:26:22.182Z,13.01
2022-09-15T11:28:52.913Z,13.14
2022-09-15T11:31:27.472Z,13.25
2022-09-15T11:33:54.341Z,13.37
2022-09-15T11:36:30.197Z,13.50
2022-09-15T11:39:02.084Z,13.72
2022-09-15T11:41:35.059Z,13.89
2022-09-15T11:44:16.053Z,14.05
2022-09-15T11:46:47.153Z,14.13
2022-09-15T11:49:18.934Z,14.22
2022-09-15T11:51:52.934Z,14.31
2022-09-15T11:54:31.469Z,14.43
2022-09-15T11:56:59.014Z,14.67
2022-09-15T11:59:32.770Z,14.82
2022-09-15T12:02:04.446Z,14.87
2022-09-15T12:04:37.570Z,14.81
2022-09-15T12:07:18.952Z,14.67
2022-09-15T12:09:45.880Z,14.45
2022-09-15T12:12:15.351Z,14.37
2022-09-15T12:14:46.798Z,14.27
2022-09-15T12:17:39.719Z,14.05
2022-09-15T12:20:14.425Z,13.89
2022-09-15T12:22:43.184Z,13.91
2022-09-15T12:25:16.701Z,13.85
2022-09-15T12:27:43.712Z,13.83
2022-09-15T12:30:29.315Z,13.91
2022-09-15T12:32:56.757Z,13.95
2022-09-15T12:35:23.700Z,13.95
2022-09-15T12:37:54.961Z,13.92
2022-09-15T12:40:33.284Z,13.94
2022-09-15T12:43:23.010Z,13.99
2022-09-15T12:46:00.821Z,14.00
2022-09-15T12:48:29.650Z,13.91
2022-09-15T12:51:01.858Z,13.82
2022-09-15T12:53:30.879Z,13.83
2022-09-15T12:56:02.488Z,13.91
2022-09-15T12:58:35.321Z,14.05
2022-09-15T13:01:21.145Z,14.28
2022-09-15T13:03:55.372Z,14.59
2022-09-15T13:06:22.653Z,14.87
2022-09-15T13:08:52.964Z,14.99
2022-09-15T13:11:40.661Z,15.00
2022-09-15T13:14:28.645Z,14.96
2022-09-15T13:16:59.851Z,14.92
2022-09-15T13:19:29.889Z,14.88
2022-09-15T13:22:16.967Z,14.81
2022-09-15T13:24:57.778Z,14.80
2022-09-15T13:27:42.784Z,14.88
2022-09-15T13:30:29.527Z,14.97
2022-09-15T13:33:12.295Z,15.09
2022-09-15T13:35:42.640Z,15.24
2022-09-15T13:38:23.742Z,15.40
2022-09-15T13:40:52.479Z,15.52
2022-09-15T13:43:41.043Z,15.58
2022-09-15T13:46:28.850Z,15.57
2022-09-15T13:49:11.727Z,15.54
2022-09-15T13:51:41.815Z,15.45
2022-09-15T13:54:24.823Z,15.36
2022-09-15T13:56:53.455Z,15.33
2022-09-15T13:59:25.736Z,15.34
2022-09-15T14:01:54.672Z,15.35
2022-09-15T14:04:28.062Z,15.33
2022-09-15T14:07:00.048Z,15.30
2022-09-15T14:09:47.753Z,15.31
2022-09-15T14:12:17.343Z,15.32
2022-09-15T14:14:44.411Z,15.23
2022-09-15T14:17:19.089Z,15.06
2022-09-15T14:19:48.092Z,14.97
2022-09-15T14:22:27.115Z,14.91
2022-09-15T14:24:54.537Z,14.87
2022-09-15T14:27:24.648Z,14.73
2022-09-15T14:29:55.437Z,14.62
2022-09-15T14:32:22.440Z,14.50
2022-09-15T14:34:49.629Z,14.37
2022-09-15T14:37:31.727Z,14.24
2022-09-15T14:40:00.077Z,14.07
2022-09-15T14:42:32.728Z,13.99
2022-09-15T14:48:00.029Z,13.84
2022-09-15T14:50:30.356Z,13.76
2022-09-15T14:52:59.930Z,13.64
2022-09-15T14:55:28.525Z,13.49
2022-09-15T14:57:59.058Z,13.31
2022-09-15T15:00:29.423Z,13.12
2022-09-15T15:03:17.619Z,12.94
2022-09-15T15:05:48.683Z,12.77
2022-09-15T15:08:25.581Z,12.59
2022-09-15T15:10:52.773Z,12.44
2022-09-15T15:13:21.355Z,12.26
2022-09-15T15:15:49.541Z,12.10
2022-09-15T15:18:35.768Z,11.95
2022-09-15T15:21:03.805Z,11.78
2022-09-15T15:23:32.162Z,11.64
2022-09-15T15:26:22.371Z,11.48
2022-09-15T15:28:49.439Z,11.28
2022-09-15T15:31:18.346Z,11.12
2022-09-15T15:33:57.318Z,10.96
2022-09-15T15:36:25.728Z,10.78
2022-09-15T15:38:54.294Z,10.62
2022-09-15T15:41:26.357Z,10.48
2022-09-15T15:43:57.137Z,10.34
2022-09-15T15:46:42.867Z,10.19
2022-09-15T15:49:11.029Z,10.04
2022-09-15T15:51:37.847Z,9.88
2022-09-15T15:54:05.024Z,9.75
2022-09-15T15:56:37.205Z,9.61
2022-09-15T15:59:05.956Z,9.48
2022-09-15T16:01:33.537Z,9.35
2022-09-15T16:04:00.542Z,9.24
2022-09-15T16:06:27.463Z,9.13
2022-09-15T16:08:56.121Z,9.03
2022-09-15T16:11:23.179Z,8.94
2022-09-15T16:13:50.899Z,8.86
2022-09-15T16:16:19.779Z,8.75
2022-09-15T16:18:46.736Z,8.64
2022-09-15T16:21:27.664Z,8.57
2022-09-15T16:23:54.622Z,8.49
2022-09-15T16:26:23.205Z,8.41
2022-09-15T16:28:51.286Z,8.33
2022-09-15T16:31:18.262Z,8.24
2022-09-15T16:33:45.633Z,8.18
2022-09-15T16:36:13.749Z,8.14
2022-09-15T16:38:41.320Z,8.09
2022-09-15T16:41:19.184Z,8.04
2022-09-15T16:43:47.120Z,8.02
2022-09-15T16:46:14.328Z,7.99
2022-09-15T16:48:42.858Z,7.96
2022-09-15T16:51:31.811Z,7.93
2022-09-15T16:53:59.026Z,7.93
2022-09-15T16:56:25.915Z,7.92
2022-09-15T16:58:58.891Z,7.91
2022-09-15T17:01:26.634Z,7.88
2022-09-15T17:03:53.526Z,7.84
2022-09-15T17:06:22.361Z,7.80
2022-09-15T17:08:49.266Z,7.74
2022-09-15T17:11:17.223Z,7.68
2022-09-15T17:13:44.848Z,7.64
2022-09-15T17:16:13.634Z,7.61
2022-09-15T17:18:40.963Z,7.57
2022-09-15T17:21:10.277Z,7.54
2022-09-15T17:23:39.203Z,7.51
2022-09-15T17:26:09.826Z,7.48
2022-09-15T17:28:37.025Z,7.43
2022-09-15T17:31:12.639Z,7.40
2022-09-15T17:33:39.762Z,7.38
2022-09-15T17:36:07.239Z,7.36
2022-09-15T17:38:34.623Z,7.31
2022-09-15T17:41:01.558Z,7.27
2022-09-15T17:43:29.372Z,7.24
2022-09-15T17:45:56.590Z,7.20
2022-09-15T17:48:24.102Z,7.16
2022-09-15T17:50:51.390Z,7.12
2022-09-15T17:53:22.799Z,7.08
2022-09-15T17:55:50.304Z,7.04
2022-09-15T17:58:17.308Z,7.01
2022-09-15T18:00:44.658Z,6.98
2022-09-15T18:03:17.659Z,6.97
2022-09-15T18:05:44.538Z,7.00
2022-09-15T18:08:11.516Z,7.06
2022-09-15T18:10:38.386Z,7.07
2022-09-15T18:13:05.891Z,7.08
2022-09-15T18:15:34.226Z,7.05
2022-09-15T18:21:29.101Z,7.00
2022-09-15T18:23:56.190Z,6.99
2022-09-15T18:26:26.311Z,7.00
2022-09-15T18:28:54.601Z,7.01
2022-09-15T18:31:21.693Z,6.99
2022-09-15T18:33:48.681Z,6.95
2022-09-15T18:36:16.245Z,6.94
2022-09-15T18:38:43.133Z,6.91
2022-09-15T18:41:10.745Z,6.87
2022-09-15T18:43:37.608Z,6.84
2022-09-15T18:46:04.944Z,6.80
2022-09-15T18:48:31.783Z,6.77
2022-09-15T18:50:59.406Z,6.73
2022-09-15T18:53:26.382Z,6.73
2022-09-15T18:55:53.285Z,6.69
2022-09-15T18:58:22.530Z,6.69
2022-09-15T19:00:50.241Z,6.69
2022-09-15T19:03:17.633Z,6.69
2022-09-15T19:05:45.925Z,6.67
2022-09-15T19:08:12.955Z,6.67
2022-09-15T19:10:42.327Z,6.65
2022-09-15T19:13:11.584Z,6.64
2022-09-15T19:15:41.894Z,6.63
2022-09-15T19:18:09.079Z,6.61
2022-09-15T19:20:36.066Z,6.60
2022-09-15T19:23:03.633Z,6.59
2022-09-15T19:25:33.114Z,6.57
2022-09-15T19:28:06.098Z,6.53
2022-09-15T19:30:33.036Z,6.49
2022-09-15T19:32:59.941Z,6.46
2022-09-15T19:35:26.792Z,6.44
2022-09-15T19:37:53.950Z,6.41
2022-09-15T19:40:23.469Z,6.39
2022-09-15T19:42:53.677Z,6.37
2022-09-15T19:45:21.143Z,6.37
2022-09-15T19:47:48.448Z,6.37
2022-09-15T19:50:18.599Z,6.38
2022-09-15T19:52:45.762Z,6.44
2022-09-15T19:55:13.469Z,6.53
2022-09-15T19:57:41.708Z,6.62
2022-09-15T20:00:17.416Z,6.77
2022-09-15T20:02:53.475Z,6.89
2022-09-15T20:05:20.458Z,7.03
2022-09-15T20:07:52.356Z,7.14
2022-09-15T20:10:19.210Z,7.28
2022-09-15T20:12:46.255Z,7.46
2022-09-15T20:15:15.710Z,7.62
2022-09-15T20:17:42.612Z,7.76
2022-09-15T20:20:10.764Z,7.85
2022-09-15T20:22:37.777Z,7.86
2022-09-15T20:25:04.840Z,7.85
2022-09-15T20:27:32.435Z,7.81
2022-09-15T20:29:59.685Z,7.78
2022-09-15T20:32:29.385Z,7.74
2022-09-15T20:34:56.261Z,7.69
2022-09-15T20:37:23.235Z,7.65
2022-09-15T20:39:51.487Z,7.60
2022-09-15T20:42:18.939Z,7.55
2022-09-15T20:44:45.938Z,7.51
2022-09-15T20:47:12.789Z,7.49
2022-09-15T20:49:40.212Z,7.47
2022-09-15T20:52:07.185Z,7.47
2022-09-15T20:54:34.583Z,7.51
2022-09-15T20:57:01.836Z,7.57
2022-09-15T20:59:28.795Z,7.61
2022-09-15T21:01:55.987Z,7.61
2022-09-15T21:04:22.940Z,7.61
2022-09-15T21:06:50.329Z,7.60
2022-09-15T21:09:17.289Z,7.60
2022-09-15T21:11:44.386Z,7.58
2022-09-15T21:14:12.902Z,7.53
2022-09-15T21:16:40.098Z,7.50
2022-09-15T21:19:10.141Z,7.48
2022-09-15T21:21:37.188Z,7.45
2022-09-15T21:24:08.076Z,7.41
2022-09-15T21:26:56.769Z,7.42
2022-09-15T21:29:23.934Z,7.41
2022-09-15T21:31:50.999Z,7.39
2022-09-15T21:34:17.979Z,7.40
2022-09-15T21:36:45.421Z,7.38
2022-09-15T21:39:12.256Z,7.38
2022-09-15T21:41:39.129Z,7.38
2022-09-15T21:44:05.997Z,7.38
2022-09-15T21:46:33.044Z,7.40
2022-09-15T21:49:00.312Z,7.40
2022-09-15T21:51:28.484Z,7.40
2022-09-15T21:53:56.226Z,7.39
2022-09-15T21:56:23.864Z,7.38
2022-09-15T21:58:51.261Z,7.37
2022-09-15T22:01:21.343Z,7.38
2022-09-15T22:03:49.880Z,7.37
2022-09-15T22:06:17.497Z,7.38
2022-09-15T22:08:44.497Z,7.36
2022-09-15T22:11:11.615Z,7.36
2022-09-15T22:13:43.163Z,7.36
2022-09-15T22:16:21.595Z,7.34
2022-09-15T22:18:49.048Z,7.33
2022-09-15T22:21:16.008Z,7.30
2022-09-15T22:23:43.735Z,7.29
2022-09-15T22:26:12.108Z,7.30
2022-09-15T22:28:39.471Z,7.27
2022-09-15T22:31:08.864Z,7.28
2022-09-15T22:33:35.859Z,7.25
2022-09-15T22:36:02.883Z,7.23
2022-09-15T22:38:30.412Z,7.23
2022-09-15T22:41:03.141Z,7.21
2022-09-15T22:43:30.251Z,7.21
2022-09-15T22:45:57.191Z,7.19
2022-09-15T22:48:24.131Z,7.17
2022-09-15T22:50:51.024Z,7.18
2022-09-15T22:53:17.862Z,7.19
2022-09-15T22:55:44.760Z,7.16
2022-09-15T22:58:11.616Z,7.12
2022-09-15T23:00:38.629Z,7.09
2022-09-15T23:03:06.338Z,7.04
2022-09-15T23:05:34.353Z,6.99
2022-09-15T23:08:01.482Z,7.02
2022-09-15T23:10:29.664Z,7.02
2022-09-15T23:12:58.350Z,6.98
2022-09-15T23:15:25.230Z,6.94
2022-09-15T23:17:52.322Z,6.90
2022-09-15T23:20:19.156Z,6.92
2022-09-15T23:22:46.061Z,6.93
2022-09-15T23:25:13.311Z,6.88
2022-09-15T23:27:40.181Z,6.80
2022-09-15T23:30:07.322Z,6.69
2022-09-15T23:32:34.146Z,6.61
2022-09-15T23:35:01.033Z,6.55
2022-09-15T23:37:27.866Z,6.50
2022-09-15T23:39:54.822Z,6.46
2022-09-15T23:42:22.460Z,6.59
2022-09-15T23:44:49.406Z,6.69
2022-09-15T23:47:16.213Z,6.78
2022-09-15T23:49:43.068Z,6.92
2022-09-15T23:52:09.865Z,7.08
2022-09-15T23:54:36.754Z,7.18
2022-09-15T23:57:03.642Z,7.23
2022-09-15T23:59:30.569Z,7.26
